sensor_id;sensor_type;location;lat;lon;timestamp;pressure;altitude;pressure_sealevel;temperature;humidity
29215;BME280;16252;49.816;7.964;2022-11-21T00:00:15;99046.97;;;9.59;71.23
29215;BME280;16252;49.816;7.964;2022-11-21T00:02:40;99047.22;;;9.56;71.17
29215;BME280;16252;49.816;7.964;2022-11-21T00:05:06;99031.03;;;9.48;71.03
29215;BME280;16252;49.816;7.964;2022-11-21T00:07:31;98995.06;;;9.21;71.11
29215;BME280;16252;49.816;7.964;2022-11-21T00:09:56;99021.53;;;9.34;71.31
29215;BME280;16252;49.816;7.964;2022-11-21T00:12:21;99009.91;;;9.35;71.31
29215;BME280;16252;49.816;7.964;2022-11-21T00:14:47;99020.31;;;9.38;71.17
29215;BME280;16252;49.816;7.964;2022-11-21T00:17:12;99017.06;;;9.35;71.18
29215;BME280;16252;49.816;7.964;2022-11-21T00:19:37;99013.69;;;9.32;71.24
29215;BME280;16252;49.816;7.964;2022-11-21T00:22:02;99013.41;;;9.36;71.03
29215;BME280;16252;49.816;7.964;2022-11-21T00:24:28;98969.72;;;9.06;70.75
29215;BME280;16252;49.816;7.964;2022-11-21T00:26:53;98966.31;;;9.04;70.78
29215;BME280;16252;49.816;7.964;2022-11-21T00:29:18;99013.63;;;9.23;70.82
29215;BME280;16252;49.816;7.964;2022-11-21T00:31:44;99034.44;;;9.29;70.68
29215;BME280;16252;49.816;7.964;2022-11-21T00:34:10;98991.38;;;9.13;70.69
29215;BME280;16252;49.816;7.964;2022-11-21T00:36:35;99005.44;;;9.15;70.52
29215;BME280;16252;49.816;7.964;2022-11-21T00:39:00;98995.16;;;9.10;70.58
29215;BME280;16252;49.816;7.964;2022-11-21T00:41:26;98973.59;;;8.92;70.53
29215;BME280;16252;49.816;7.964;2022-11-21T00:43:51;99000.91;;;9.05;70.67
29215;BME280;16252;49.816;7.964;2022-11-21T00:46:16;98972.16;;;8.88;70.42
29215;BME280;16252;49.816;7.964;2022-11-21T00:48:41;98976.53;;;8.89;70.49
29215;BME280;16252;49.816;7.964;2022-11-21T00:51:07;98984.97;;;8.94;70.55
29215;BME280;16252;49.816;7.964;2022-11-21T00:53:32;98983.41;;;8.92;70.47
29215;BME280;16252;49.816;7.964;2022-11-21T00:55:58;98993.22;;;8.91;70.44
29215;BME280;16252;49.816;7.964;2022-11-21T00:58:23;98992.97;;;8.94;70.45
29215;BME280;16252;49.816;7.964;2022-11-21T01:00:48;98981.13;;;8.87;70.34
29215;BME280;16252;49.816;7.964;2022-11-21T01:03:14;98956.50;;;8.74;70.29
29215;BME280;16252;49.816;7.964;2022-11-21T01:05:39;98968.72;;;8.76;70.30
29215;BME280;16252;49.816;7.964;2022-11-21T01:08:04;98962.06;;;8.71;70.30
29215;BME280;16252;49.816;7.964;2022-11-21T01:10:30;99001.50;;;8.88;70.56
29215;BME280;16252;49.816;7.964;2022-11-21T01:12:55;98964.63;;;8.72;70.48
29215;BME280;16252;49.816;7.964;2022-11-21T01:15:20;98988.69;;;8.82;70.35
29215;BME280;16252;49.816;7.964;2022-11-21T01:17:45;98981.78;;;8.79;70.44
29215;BME280;16252;49.816;7.964;2022-11-21T01:20:11;98991.81;;;8.87;70.68
29215;BME280;16252;49.816;7.964;2022-11-21T01:22:36;98998.44;;;8.93;70.62
29215;BME280;16252;49.816;7.964;2022-11-21T01:25:01;98995.03;;;8.90;70.61
29215;BME280;16252;49.816;7.964;2022-11-21T01:27:27;98998.16;;;8.96;70.44
29215;BME280;16252;49.816;7.964;2022-11-21T01:29:52;99003.22;;;8.99;70.16
29215;BME280;16252;49.816;7.964;2022-11-21T01:32:17;98989.31;;;8.95;70.21
29215;BME280;16252;49.816;7.964;2022-11-21T01:34:42;98999.47;;;9.01;70.28
29215;BME280;16252;49.816;7.964;2022-11-21T01:37:08;98992.84;;;8.96;70.15
29215;BME280;16252;49.816;7.964;2022-11-21T01:39:33;98979.31;;;8.87;70.29
29215;BME280;16252;49.816;7.964;2022-11-21T01:41:58;98996.59;;;8.93;70.21
29215;BME280;16252;49.816;7.964;2022-11-21T01:44:26;99001.81;;;8.95;70.42
29215;BME280;16252;49.816;7.964;2022-11-21T01:46:52;98979.44;;;8.86;70.37
29215;BME280;16252;49.816;7.964;2022-11-21T01:49:24;99011.31;;;9.08;70.50
29215;BME280;16252;49.816;7.964;2022-11-21T01:59:23;98967.16;;;8.95;70.54
29215;BME280;16252;49.816;7.964;2022-11-21T02:01:52;98931.13;;;8.79;70.48
29215;BME280;16252;49.816;7.964;2022-11-21T02:04:18;98931.97;;;8.80;70.43
29215;BME280;16252;49.816;7.964;2022-11-21T02:06:44;98915.06;;;8.70;70.37
29215;BME280;16252;49.816;7.964;2022-11-21T02:11:39;98993.72;;;9.27;70.23
29215;BME280;16252;49.816;7.964;2022-11-21T02:14:06;98974.72;;;9.20;70.12
29215;BME280;16252;49.816;7.964;2022-11-21T02:16:32;98987.28;;;9.29;70.08
29215;BME280;16252;49.816;7.964;2022-11-21T02:18:59;98994.16;;;9.32;70.13
29215;BME280;16252;49.816;7.964;2022-11-21T02:21:47;99005.31;;;9.47;69.69
29215;BME280;16252;49.816;7.964;2022-11-21T02:24:29;99006.84;;;9.49;69.48
29215;BME280;16252;49.816;7.964;2022-11-21T02:26:56;98971.31;;;9.18;69.68
29215;BME280;16252;49.816;7.964;2022-11-21T02:29:23;98951.75;;;9.08;69.61
29215;BME280;16252;49.816;7.964;2022-11-21T02:31:48;99020.34;;;9.48;69.63
29215;BME280;16252;49.816;7.964;2022-11-21T02:34:15;98983.88;;;9.27;69.61
29215;BME280;16252;49.816;7.964;2022-11-21T02:36:43;99007.00;;;9.48;69.63
29215;BME280;16252;49.816;7.964;2022-11-21T02:39:18;98989.00;;;9.40;69.46
29215;BME280;16252;49.816;7.964;2022-11-21T02:41:53;98992.94;;;9.46;69.44
29215;BME280;16252;49.816;7.964;2022-11-21T02:44:38;98940.41;;;9.16;69.11
29215;BME280;16252;49.816;7.964;2022-11-21T02:47:04;99006.72;;;9.51;69.32
29215;BME280;16252;49.816;7.964;2022-11-21T02:49:38;98990.72;;;9.51;69.02
29215;BME280;16252;49.816;7.964;2022-11-21T02:52:04;98975.22;;;9.35;69.10
29215;BME280;16252;49.816;7.964;2022-11-21T02:54:30;98985.66;;;9.48;68.95
29215;BME280;16252;49.816;7.964;2022-11-21T02:56:55;98987.31;;;9.49;68.94
29215;BME280;16252;49.816;7.964;2022-11-21T02:59:21;98990.84;;;9.49;68.84
29215;BME280;16252;49.816;7.964;2022-11-21T03:01:47;98963.38;;;9.28;68.81
29215;BME280;16252;49.816;7.964;2022-11-21T03:04:13;98969.28;;;9.31;68.74
29215;BME280;16252;49.816;7.964;2022-11-21T03:06:38;98927.91;;;9.06;68.64
29215;BME280;16252;49.816;7.964;2022-11-21T03:09:03;98957.25;;;9.16;68.60
29215;BME280;16252;49.816;7.964;2022-11-21T03:11:28;98965.16;;;9.18;68.74
29215;BME280;16252;49.816;7.964;2022-11-21T03:13:54;98992.72;;;9.28;68.73
29215;BME280;16252;49.816;7.964;2022-11-21T03:16:19;98980.59;;;9.14;68.68
29215;BME280;16252;49.816;7.964;2022-11-21T03:18:44;98988.28;;;9.07;68.86
29215;BME280;16252;49.816;7.964;2022-11-21T03:21:09;98980.78;;;9.01;68.74
29215;BME280;16252;49.816;7.964;2022-11-21T03:23:35;99004.28;;;9.07;68.76
29215;BME280;16252;49.816;7.964;2022-11-21T03:26:00;98947.06;;;8.70;68.82
29215;BME280;16252;49.816;7.964;2022-11-21T03:28:25;98983.66;;;8.88;68.65
29215;BME280;16252;49.816;7.964;2022-11-21T03:30:50;98996.34;;;8.96;68.79
29215;BME280;16252;49.816;7.964;2022-11-21T03:33:16;98977.19;;;8.81;68.89
29215;BME280;16252;49.816;7.964;2022-11-21T03:35:41;98954.59;;;8.64;68.87
29215;BME280;16252;49.816;7.964;2022-11-21T03:38:06;98976.84;;;8.75;69.06
29215;BME280;16252;49.816;7.964;2022-11-21T03:40:31;99014.19;;;8.96;69.09
29215;BME280;16252;49.816;7.964;2022-11-21T03:43:02;99011.13;;;9.00;69.27
29215;BME280;16252;49.816;7.964;2022-11-21T03:45:28;98944.72;;;8.55;69.16
29215;BME280;16252;49.816;7.964;2022-11-21T03:47:53;98998.09;;;8.86;69.33
29215;BME280;16252;49.816;7.964;2022-11-21T03:50:18;98926.13;;;8.44;69.38
29215;BME280;16252;49.816;7.964;2022-11-21T03:52:45;98971.78;;;8.72;69.56
29215;BME280;16252;49.816;7.964;2022-11-21T03:55:11;98986.13;;;8.80;69.60
29215;BME280;16252;49.816;7.964;2022-11-21T03:57:37;98991.09;;;8.85;69.72
29215;BME280;16252;49.816;7.964;2022-11-21T04:00:03;98952.22;;;8.61;69.66
29215;BME280;16252;49.816;7.964;2022-11-21T04:02:28;98946.72;;;8.63;69.66
29215;BME280;16252;49.816;7.964;2022-11-21T04:04:53;99001.44;;;8.99;69.60
29215;BME280;16252;49.816;7.964;2022-11-21T04:07:19;98967.34;;;8.82;69.53
29215;BME280;16252;49.816;7.964;2022-11-21T04:09:44;98987.75;;;8.93;69.63
29215;BME280;16252;49.816;7.964;2022-11-21T04:12:09;98936.31;;;8.60;69.55
29215;BME280;16252;49.816;7.964;2022-11-21T04:14:34;98989.88;;;8.89;69.69
29215;BME280;16252;49.816;7.964;2022-11-21T04:17:00;99017.34;;;9.10;69.65
29215;BME280;16252;49.816;7.964;2022-11-21T04:19:25;98941.72;;;8.70;69.67
29215;BME280;16252;49.816;7.964;2022-11-21T04:21:50;99000.31;;;9.02;69.68
29215;BME280;16252;49.816;7.964;2022-11-21T04:24:15;98986.84;;;9.03;69.80
29215;BME280;16252;49.816;7.964;2022-11-21T04:26:41;98983.44;;;9.01;69.79
29215;BME280;16252;49.816;7.964;2022-11-21T04:29:06;98969.81;;;8.95;69.72
29215;BME280;16252;49.816;7.964;2022-11-21T04:31:31;98975.91;;;9.06;69.67
29215;BME280;16252;49.816;7.964;2022-11-21T04:33:57;98969.28;;;9.01;69.79
29215;BME280;16252;49.816;7.964;2022-11-21T04:36:22;98979.28;;;9.08;69.65
29215;BME280;16252;49.816;7.964;2022-11-21T04:38:48;98985.78;;;9.16;69.60
29215;BME280;16252;49.816;7.964;2022-11-21T04:41:13;98954.81;;;9.03;69.58
29215;BME280;16252;49.816;7.964;2022-11-21T04:43:38;98914.84;;;8.82;69.52
29215;BME280;16252;49.816;7.964;2022-11-21T04:46:03;98958.53;;;9.12;69.53
29215;BME280;16252;49.816;7.964;2022-11-21T04:48:29;98946.81;;;9.03;69.32
29215;BME280;16252;49.816;7.964;2022-11-21T04:50:54;98949.25;;;9.06;69.22
29215;BME280;16252;49.816;7.964;2022-11-21T04:53:19;98919.53;;;8.90;69.29
29215;BME280;16252;49.816;7.964;2022-11-21T04:55:45;98984.59;;;9.29;69.26
29215;BME280;16252;49.816;7.964;2022-11-21T04:58:10;98972.59;;;9.24;68.99
29215;BME280;16252;49.816;7.964;2022-11-21T05:00:35;98964.88;;;9.21;69.07
29215;BME280;16252;49.816;7.964;2022-11-21T05:03:05;99002.78;;;9.45;68.82
29215;BME280;16252;49.816;7.964;2022-11-21T05:05:30;98989.72;;;9.42;69.04
29215;BME280;16252;49.816;7.964;2022-11-21T05:07:57;99004.63;;;9.45;69.03
29215;BME280;16252;49.816;7.964;2022-11-21T05:10:23;99001.78;;;9.46;68.84
29215;BME280;16252;49.816;7.964;2022-11-21T05:12:56;99003.50;;;9.47;68.79
29215;BME280;16252;49.816;7.964;2022-11-21T05:15:40;98993.75;;;9.37;68.64
29215;BME280;16252;49.816;7.964;2022-11-21T05:18:05;98984.16;;;9.34;68.72
29215;BME280;16252;49.816;7.964;2022-11-21T05:20:30;99003.91;;;9.43;68.45
29215;BME280;16252;49.816;7.964;2022-11-21T05:22:56;98999.41;;;9.43;68.30
29215;BME280;16252;49.816;7.964;2022-11-21T05:25:21;98956.75;;;9.22;68.22
29215;BME280;16252;49.816;7.964;2022-11-21T05:27:46;99000.25;;;9.44;68.14
29215;BME280;16252;49.816;7.964;2022-11-21T05:30:12;99007.84;;;9.48;68.19
29215;BME280;16252;49.816;7.964;2022-11-21T05:32:37;98981.22;;;9.27;68.16
29215;BME280;16252;49.816;7.964;2022-11-21T05:35:02;98979.66;;;9.25;68.27
29215;BME280;16252;49.816;7.964;2022-11-21T05:37:28;98991.50;;;9.32;68.20
29215;BME280;16252;49.816;7.964;2022-11-21T05:39:53;99000.50;;;9.41;68.13
29215;BME280;16252;49.816;7.964;2022-11-21T05:42:18;98978.50;;;9.18;68.21
29215;BME280;16252;49.816;7.964;2022-11-21T05:45:04;98997.50;;;9.24;68.06
29215;BME280;16252;49.816;7.964;2022-11-21T05:47:29;98988.91;;;9.21;68.09
29215;BME280;16252;49.816;7.964;2022-11-21T05:49:54;98984.94;;;9.15;68.15
29215;BME280;16252;49.816;7.964;2022-11-21T05:52:19;98982.94;;;9.07;68.41
29215;BME280;16252;49.816;7.964;2022-11-21T05:54:45;98972.31;;;8.96;68.39
29215;BME280;16252;49.816;7.964;2022-11-21T05:57:10;98982.16;;;8.96;68.45
29215;BME280;16252;49.816;7.964;2022-11-21T05:59:35;98956.94;;;8.79;68.68
29215;BME280;16252;49.816;7.964;2022-11-21T06:02:00;98984.25;;;8.92;68.67
29215;BME280;16252;49.816;7.964;2022-11-21T06:04:44;99014.34;;;9.04;68.83
29215;BME280;16252;49.816;7.964;2022-11-21T06:07:10;99012.69;;;9.03;69.06
29215;BME280;16252;49.816;7.964;2022-11-21T06:09:35;98979.84;;;8.81;69.29
29215;BME280;16252;49.816;7.964;2022-11-21T06:12:00;99017.44;;;8.99;69.16
29215;BME280;16252;49.816;7.964;2022-11-21T06:14:25;98946.50;;;8.66;69.33
29215;BME280;16252;49.816;7.964;2022-11-21T06:16:51;98983.66;;;8.88;69.39
29215;BME280;16252;49.816;7.964;2022-11-21T06:19:16;98996.34;;;8.96;69.31
29215;BME280;16252;49.816;7.964;2022-11-21T06:21:41;98983.66;;;8.88;69.32
29215;BME280;16252;49.816;7.964;2022-11-21T06:24:07;98993.38;;;8.89;69.13
29215;BME280;16252;49.816;7.964;2022-11-21T06:26:32;98962.78;;;8.73;69.26
29215;BME280;16252;49.816;7.964;2022-11-21T06:28:57;98941.16;;;8.66;69.28
29215;BME280;16252;49.816;7.964;2022-11-21T06:31:25;99004.66;;;9.03;69.22
29215;BME280;16252;49.816;7.964;2022-11-21T06:33:56;98990.44;;;8.93;69.18
29215;BME280;16252;49.816;7.964;2022-11-21T06:36:21;98975.91;;;8.85;69.21
29215;BME280;16252;49.816;7.964;2022-11-21T06:38:47;98987.19;;;8.89;68.97
29215;BME280;16252;49.816;7.964;2022-11-21T06:43:39;98942.03;;;8.55;69.09
29215;BME280;16252;49.816;7.964;2022-11-21T06:46:05;98992.06;;;8.84;69.14
29215;BME280;16252;49.816;7.964;2022-11-21T06:48:32;98995.69;;;8.83;69.08
29215;BME280;16252;49.816;7.964;2022-11-21T06:51:06;99000.91;;;8.84;69.14
29215;BME280;16252;49.816;7.964;2022-11-21T06:53:33;98938.34;;;8.46;69.08
29215;BME280;16252;49.816;7.964;2022-11-21T06:55:59;99005.91;;;8.78;69.10
29215;BME280;16252;49.816;7.964;2022-11-21T06:58:25;98991.09;;;8.64;68.96
29215;BME280;16252;49.816;7.964;2022-11-21T07:00:50;98999.28;;;8.72;69.11
29215;BME280;16252;49.816;7.964;2022-11-21T07:03:15;98983.59;;;8.58;69.08
29215;BME280;16252;49.816;7.964;2022-11-21T07:05:41;98967.66;;;8.46;69.22
29215;BME280;16252;49.816;7.964;2022-11-21T07:08:06;98962.34;;;8.35;69.27
29215;BME280;16252;49.816;7.964;2022-11-21T07:10:31;98994.78;;;8.52;69.36
29215;BME280;16252;49.816;7.964;2022-11-21T07:12:58;99014.50;;;8.60;69.18
29215;BME280;16252;49.816;7.964;2022-11-21T07:15:42;99010.16;;;8.59;69.30
29215;BME280;16252;49.816;7.964;2022-11-21T07:18:07;99000.75;;;8.44;69.43
29215;BME280;16252;49.816;7.964;2022-11-21T07:20:33;99020.84;;;8.48;69.32
29215;BME280;16252;49.816;7.964;2022-11-21T07:22:58;99001.88;;;8.41;69.54
29215;BME280;16252;49.816;7.964;2022-11-21T07:25:23;98970.50;;;8.22;69.66
29215;BME280;16252;49.816;7.964;2022-11-21T07:27:48;98847.66;;;7.51;69.65
29215;BME280;16252;49.816;7.964;2022-11-21T07:30:14;99034.59;;;8.64;69.73
29215;BME280;16252;49.816;7.964;2022-11-21T07:32:39;99031.94;;;8.64;69.66
29215;BME280;16252;49.816;7.964;2022-11-21T07:35:05;99003.28;;;8.45;69.67
29215;BME280;16252;49.816;7.964;2022-11-21T07:37:31;99012.81;;;8.59;69.72
29215;BME280;16252;49.816;7.964;2022-11-21T07:39:56;98994.31;;;8.46;69.81
29215;BME280;16252;49.816;7.964;2022-11-21T07:42:21;99040.59;;;8.78;69.63
29215;BME280;16252;49.816;7.964;2022-11-21T07:44:47;98997.19;;;8.55;69.63
29215;BME280;16252;49.816;7.964;2022-11-21T07:47:12;99013.47;;;8.73;69.48
29215;BME280;16252;49.816;7.964;2022-11-21T07:49:37;99015.16;;;8.74;69.29
29215;BME280;16252;49.816;7.964;2022-11-21T07:52:02;99032.09;;;8.84;69.33
29215;BME280;16252;49.816;7.964;2022-11-21T07:54:28;99024.31;;;8.81;69.33
29215;BME280;16252;49.816;7.964;2022-11-21T07:59:21;99012.16;;;8.88;69.39
29215;BME280;16252;49.816;7.964;2022-11-21T08:01:46;99032.59;;;8.99;69.30
29215;BME280;16252;49.816;7.964;2022-11-21T08:04:11;99020.75;;;8.92;69.24
29215;BME280;16252;49.816;7.964;2022-11-21T08:06:36;99012.09;;;8.99;69.21
29215;BME280;16252;49.816;7.964;2022-11-21T08:09:02;98987.75;;;8.93;69.17
29215;BME280;16252;49.816;7.964;2022-11-21T08:11:27;98996.09;;;8.99;68.96
29215;BME280;16252;49.816;7.964;2022-11-21T08:13:53;99019.75;;;9.14;68.95
29215;BME280;16252;49.816;7.964;2022-11-21T08:16:18;99029.53;;;9.24;68.73
29215;BME280;16252;49.816;7.964;2022-11-21T08:18:44;99034.22;;;9.32;68.63
29215;BME280;16252;49.816;7.964;2022-11-21T08:21:09;99001.28;;;9.22;68.60
29215;BME280;16252;49.816;7.964;2022-11-21T08:23:34;99027.75;;;9.35;68.37
29215;BME280;16252;49.816;7.964;2022-11-21T08:26:00;99028.28;;;9.28;68.24
29215;BME280;16252;49.816;7.964;2022-11-21T08:28:25;98996.34;;;9.17;68.08
29215;BME280;16252;49.816;7.964;2022-11-21T08:30:50;98984.56;;;9.20;67.97
29215;BME280;16252;49.816;7.964;2022-11-21T08:33:15;99029.59;;;9.44;68.03
29215;BME280;16252;49.816;7.964;2022-11-21T08:35:41;99013.97;;;9.39;67.96
29215;BME280;16252;49.816;7.964;2022-11-21T08:38:06;98978.22;;;9.21;67.76
29215;BME280;16252;49.816;7.964;2022-11-21T08:40:33;98993.19;;;9.33;67.76
29215;BME280;16252;49.816;7.964;2022-11-21T08:43:00;99017.72;;;9.58;67.43
29215;BME280;16252;49.816;7.964;2022-11-21T08:45:26;98997.16;;;9.48;67.45
29215;BME280;16252;49.816;7.964;2022-11-21T08:47:52;98997.88;;;9.50;67.17
29215;BME280;16252;49.816;7.964;2022-11-21T08:50:18;99008.72;;;9.59;66.94
29215;BME280;16252;49.816;7.964;2022-11-21T08:52:43;99013.56;;;9.65;66.93
29215;BME280;16252;49.816;7.964;2022-11-21T08:55:09;99021.56;;;9.65;66.84
29215;BME280;16252;49.816;7.964;2022-11-21T08:57:38;98992.97;;;9.55;66.37
29215;BME280;16252;49.816;7.964;2022-11-21T09:00:03;99015.50;;;9.63;66.43
29215;BME280;16252;49.816;7.964;2022-11-21T09:02:29;99016.03;;;9.57;66.49
29215;BME280;16252;49.816;7.964;2022-11-21T09:04:54;99015.50;;;9.63;66.80
29215;BME280;16252;49.816;7.964;2022-11-21T09:07:20;99012.50;;;9.56;66.39
29215;BME280;16252;49.816;7.964;2022-11-21T09:09:45;98944.25;;;9.23;66.52
29215;BME280;16252;49.816;7.964;2022-11-21T09:12:10;98991.81;;;9.48;66.45
29215;BME280;16252;49.816;7.964;2022-11-21T09:14:35;98996.38;;;9.58;66.42
29215;BME280;16252;49.816;7.964;2022-11-21T09:17:19;99009.72;;;9.58;66.46
29215;BME280;16252;49.816;7.964;2022-11-21T09:20:04;98997.78;;;9.62;66.49
29215;BME280;16252;49.816;7.964;2022-11-21T09:22:29;99001.31;;;9.72;66.54
29215;BME280;16252;49.816;7.964;2022-11-21T09:24:54;98974.00;;;9.59;66.38
29215;BME280;16252;49.816;7.964;2022-11-21T09:27:20;98985.03;;;9.75;66.22
29215;BME280;16252;49.816;7.964;2022-11-21T09:29:45;98941.97;;;9.59;66.13
29215;BME280;16252;49.816;7.964;2022-11-21T09:32:10;98973.50;;;9.84;66.10
29215;BME280;16252;49.816;7.964;2022-11-21T09:34:35;98976.34;;;9.92;66.03
29215;BME280;16252;49.816;7.964;2022-11-21T09:37:01;98962.44;;;9.98;65.99
29215;BME280;16252;49.816;7.964;2022-11-21T09:39:26;98931.06;;;9.81;65.76
29215;BME280;16252;49.816;7.964;2022-11-21T09:42:00;98976.09;;;10.15;65.59
29215;BME280;16252;49.816;7.964;2022-11-21T09:47:18;98977.66;;;10.27;65.43
29215;BME280;16252;49.816;7.964;2022-11-21T09:49:52;98938.81;;;10.04;65.44
29215;BME280;16252;49.816;7.964;2022-11-21T09:52:22;98966.97;;;10.27;65.39
29215;BME280;16252;49.816;7.964;2022-11-21T09:54:56;98953.22;;;10.32;65.51
29215;BME280;16252;49.816;7.964;2022-11-21T09:57:24;98977.28;;;10.41;65.22
29215;BME280;16252;49.816;7.964;2022-11-21T09:59:50;98975.72;;;10.49;65.30
29215;BME280;16252;49.816;7.964;2022-11-21T10:02:18;98973.75;;;10.51;65.10
29215;BME280;16252;49.816;7.964;2022-11-21T10:04:46;98972.75;;;10.61;65.03
29215;BME280;16252;49.816;7.964;2022-11-21T10:07:30;98957.66;;;10.70;65.08
29215;BME280;16252;49.816;7.964;2022-11-21T10:10:19;98973.00;;;10.78;64.62
29215;BME280;16252;49.816;7.964;2022-11-21T10:12:59;98954.69;;;10.73;65.00
29215;BME280;16252;49.816;7.964;2022-11-21T10:16:00;98969.88;;;10.92;65.00
29215;BME280;16252;49.816;7.964;2022-11-21T10:29:38;98945.13;;;11.27;63.88
29215;BME280;16252;49.816;7.964;2022-11-21T10:32:30;98932.28;;;11.31;64.78
29215;BME280;16252;49.816;7.964;2022-11-21T10:38:01;98933.38;;;11.38;63.45
29215;BME280;16252;49.816;7.964;2022-11-21T10:40:43;98928.50;;;11.52;63.49
29215;BME280;16252;49.816;7.964;2022-11-21T10:43:23;98917.03;;;11.59;63.47
29215;BME280;16252;49.816;7.964;2022-11-21T10:46:09;98901.72;;;11.52;63.51
29215;BME280;16252;49.816;7.964;2022-11-21T10:48:34;98895.78;;;11.58;63.16
29215;BME280;16252;49.816;7.964;2022-11-21T10:53:37;98876.41;;;11.64;63.17
29215;BME280;16252;49.816;7.964;2022-11-21T10:56:22;98898.88;;;11.81;62.80
29215;BME280;16252;49.816;7.964;2022-11-21T10:58:53;98844.31;;;11.54;62.65
29215;BME280;16252;49.816;7.964;2022-11-21T11:03:43;98867.50;;;11.91;62.78
29215;BME280;16252;49.816;7.964;2022-11-21T11:06:09;98858.69;;;11.99;62.89
29215;BME280;16252;49.816;7.964;2022-11-21T11:08:53;98863.22;;;12.16;62.56
29215;BME280;16252;49.816;7.964;2022-11-21T11:11:22;98823.38;;;12.03;62.68
29215;BME280;16252;49.816;7.964;2022-11-21T11:13:59;98856.28;;;12.31;62.13
29215;BME280;16252;49.816;7.964;2022-11-21T11:16:26;98864.28;;;12.49;61.84
29215;BME280;16252;49.816;7.964;2022-11-21T11:19:00;98830.06;;;12.43;61.50
29215;BME280;16252;49.816;7.964;2022-11-21T11:21:29;98849.09;;;12.58;61.13
29215;BME280;16252;49.816;7.964;2022-11-21T11:26:31;98834.00;;;12.57;61.32
29215;BME280;16252;49.816;7.964;2022-11-21T11:29:13;98829.69;;;12.64;60.85
29215;BME280;16252;49.816;7.964;2022-11-21T11:32:04;98814.56;;;12.63;60.97
29215;BME280;16252;49.816;7.964;2022-11-21T11:34:40;98793.81;;;12.39;60.58
29215;BME280;16252;49.816;7.964;2022-11-21T11:37:33;98776.19;;;12.36;60.90
29215;BME280;16252;49.816;7.964;2022-11-21T11:43:05;98794.75;;;12.56;60.34
29215;BME280;16252;49.816;7.964;2022-11-21T11:49:03;98777.63;;;12.49;60.20
29215;BME280;16252;49.816;7.964;2022-11-21T11:51:36;98767.13;;;12.38;60.28
29215;BME280;16252;49.816;7.964;2022-11-21T11:54:17;98785.13;;;12.45;60.30
29215;BME280;16252;49.816;7.964;2022-11-21T11:56:44;98775.72;;;12.41;60.86
29215;BME280;16252;49.816;7.964;2022-11-21T11:59:30;98782.50;;;12.53;60.74
29215;BME280;16252;49.816;7.964;2022-11-21T12:02:14;98775.75;;;12.49;60.37
29215;BME280;16252;49.816;7.964;2022-11-21T12:04:48;98763.66;;;12.45;60.68
29215;BME280;16252;49.816;7.964;2022-11-21T12:07:19;98771.44;;;12.56;60.80
29215;BME280;16252;49.816;7.964;2022-11-21T12:09:56;98755.34;;;12.56;60.96
29215;BME280;16252;49.816;7.964;2022-11-21T12:12:35;98745.44;;;12.57;61.64
29215;BME280;16252;49.816;7.964;2022-11-21T12:15:14;98756.56;;;12.70;60.78
29215;BME280;16252;49.816;7.964;2022-11-21T12:20:56;98743.50;;;12.67;60.96
29215;BME280;16252;49.816;7.964;2022-11-21T12:23:31;98718.97;;;12.54;60.38
29215;BME280;16252;49.816;7.964;2022-11-21T12:37:08;98708.56;;;12.59;59.80
29215;BME280;16252;49.816;7.964;2022-11-21T12:45:30;98691.91;;;12.47;59.68
29215;BME280;16252;49.816;7.964;2022-11-21T12:48:18;98681.72;;;12.51;59.36
29215;BME280;16252;49.816;7.964;2022-11-21T12:54:41;98664.94;;;12.49;59.03
29215;BME280;16252;49.816;7.964;2022-11-21T12:57:15;98646.09;;;12.32;58.90
29215;BME280;16252;49.816;7.964;2022-11-21T13:02:49;98655.50;;;12.36;58.60
29215;BME280;16252;49.816;7.964;2022-11-21T13:05:28;98650.63;;;12.32;58.72
29215;BME280;16252;49.816;7.964;2022-11-21T13:08:00;98631.13;;;12.22;58.74
29215;BME280;16252;49.816;7.964;2022-11-21T13:10:26;98623.56;;;12.17;58.77
29215;BME280;16252;49.816;7.964;2022-11-21T13:13:13;98608.66;;;12.23;58.42
29215;BME280;16252;49.816;7.964;2022-11-21T13:15:59;98623.66;;;12.33;59.10
29215;BME280;16252;49.816;7.964;2022-11-21T13:18:33;98634.41;;;12.42;58.28
29215;BME280;16252;49.816;7.964;2022-11-21T13:20:59;98645.97;;;12.42;59.32
29215;BME280;16252;49.816;7.964;2022-11-21T13:23:35;98635.59;;;12.47;58.54
29215;BME280;16252;49.816;7.964;2022-11-21T13:26:21;98605.19;;;12.30;58.61
29215;BME280;16252;49.816;7.964;2022-11-21T13:28:47;98619.81;;;12.44;58.17
29215;BME280;16252;49.816;7.964;2022-11-21T13:31:31;98594.16;;;12.42;58.15
29215;BME280;16252;49.816;7.964;2022-11-21T13:33:58;98577.72;;;12.28;58.46
29215;BME280;16252;49.816;7.964;2022-11-21T13:52:30;98569.41;;;12.56;57.81
29215;BME280;16252;49.816;7.964;2022-11-21T13:58:18;98554.44;;;12.45;57.90
29215;BME280;16252;49.816;7.964;2022-11-21T14:08:39;98541.69;;;12.31;58.46
29215;BME280;16252;49.816;7.964;2022-11-21T14:11:25;98526.56;;;12.22;58.17
29215;BME280;16252;49.816;7.964;2022-11-21T14:13:53;98552.72;;;12.28;58.55
29215;BME280;16252;49.816;7.964;2022-11-21T14:16:39;98555.38;;;12.28;58.41
29215;BME280;16252;49.816;7.964;2022-11-21T14:19:17;98545.47;;;12.20;58.44
29215;BME280;16252;49.816;7.964;2022-11-21T14:21:44;98518.28;;;11.99;58.83
29215;BME280;16252;49.816;7.964;2022-11-21T14:24:14;98530.66;;;12.00;58.88
29215;BME280;16252;49.816;7.964;2022-11-21T14:26:49;98533.53;;;11.98;58.99
29215;BME280;16252;49.816;7.964;2022-11-21T14:29:26;98514.91;;;11.88;59.30
29215;BME280;16252;49.816;7.964;2022-11-21T14:31:52;98506.25;;;11.77;59.68
29215;BME280;16252;49.816;7.964;2022-11-21T14:34:29;98502.06;;;11.74;59.36
29215;BME280;16252;49.816;7.964;2022-11-21T14:36:58;98519.69;;;11.85;59.80
29215;BME280;16252;49.816;7.964;2022-11-21T14:39:29;98502.41;;;11.79;59.82
29215;BME280;16252;49.816;7.964;2022-11-21T14:41:56;98512.66;;;11.84;59.75
29215;BME280;16252;49.816;7.964;2022-11-21T14:44:23;98499.75;;;11.79;59.96
29215;BME280;16252;49.816;7.964;2022-11-21T14:46:50;98481.28;;;11.68;59.80
29215;BME280;16252;49.816;7.964;2022-11-21T14:55:05;98486.53;;;11.86;59.95
29215;BME280;16252;49.816;7.964;2022-11-21T14:57:41;98457.50;;;11.65;59.92
29215;BME280;16252;49.816;7.964;2022-11-21T15:00:08;98454.31;;;11.61;60.23